Time;durP1;ratioP1;P1;durP2;ratioP2;P2;SDS_P1;SDS_P2;PMS_P1;PMS_P2;Temp;Humidity;BMP_temperature;BMP_pressure;BME280_temperature;BME280_humidity;BME280_pressure;Samples;Min_cycle;Max_cycle;Signal;HPM_P1;HPM_P2
2022/06/02 00:02:07;;;;;;;0.70;0.37;;;17.20;1.00;;;;;;5099339;28;20453;-80
2022/06/02 00:04:41;;;;;;;0.43;0.30;;;17.20;1.00;;;;;;5099984;28;20449;-81
2022/06/02 00:07:18;;;;;;;0.50;0.30;;;16.90;1.00;;;;;;5099559;28;20916;-80
2022/06/02 00:10:00;;;;;;;0.40;0.30;;;16.90;1.00;;;;;;5098948;28;20489;-80
2022/06/02 00:12:32;;;;;;;0.40;0.30;;;16.70;1.00;;;;;;5098889;28;20481;-79
2022/06/02 00:15:10;;;;;;;1.47;0.30;;;16.60;1.00;;;;;;5097598;28;20449;-80
2022/06/02 00:17:42;;;;;;;0.60;0.40;;;16.70;1.00;;;;;;5097453;28;20448;-80
2022/06/02 00:20:15;;;;;;;0.60;0.40;;;16.70;1.00;;;;;;5097700;28;20481;-80
2022/06/02 00:22:55;;;;;;;0.67;0.30;;;16.80;1.00;;;;;;5098415;28;20535;-80
2022/06/02 00:25:30;;;;;;;0.60;0.30;;;16.70;1.00;;;;;;5098557;28;20946;-80
2022/06/02 00:28:05;;;;;;;0.50;0.40;;;16.80;1.00;;;;;;5098173;28;20958;-80
2022/06/02 00:30:38;;;;;;;0.50;0.30;;;16.80;1.00;;;;;;5098234;28;20548;-80
2022/06/02 00:33:18;;;;;;;0.57;0.30;;;16.70;1.00;;;;;;5098938;28;20450;-79
2022/06/02 00:35:52;;;;;;;0.60;0.30;;;16.50;1.00;;;;;;5098281;28;20450;-79
2022/06/02 00:38:24;;;;;;;0.40;0.30;;;16.30;1.00;;;;;;5098589;28;20524;-79
2022/06/02 00:40:53;;;;;;;0.50;0.30;;;16.30;1.00;;;;;;5099408;28;20662;-80
2022/06/02 00:43:48;;;;;;;0.67;0.30;;;16.20;1.00;;;;;;5099397;28;20496;-80
2022/06/02 00:46:23;;;;;;;0.50;0.30;;;16.30;1.00;;;;;;5098011;28;20522;-80
2022/06/02 00:48:58;;;;;;;0.30;0.30;;;16.50;1.00;;;;;;5099375;28;20461;-80
2022/06/02 00:51:40;;;;;;;0.70;0.20;;;16.50;1.00;;;;;;5099216;28;20584;-80
2022/06/02 01:00:00;;;;;;;0.50;0.30;;;16.60;1.00;;;;;;5097211;28;20515;-80
2022/06/02 01:02:32;;;;;;;0.57;0.30;;;16.70;1.00;;;;;;5097219;28;20473;-80
2022/06/02 01:05:00;;;;;;;0.53;0.30;;;16.70;1.00;;;;;;5098343;28;20472;-80
2022/06/02 01:07:38;;;;;;;0.60;0.40;;;16.80;1.00;;;;;;5098736;28;20462;-80
2022/06/02 01:10:24;;;;;;;0.60;0.30;;;16.80;1.00;;;;;;5097167;28;20920;-80
2022/06/02 01:13:11;;;;;;;0.50;0.30;;;16.50;1.00;;;;;;5095731;28;20672;-80
2022/06/02 01:15:49;;;;;;;0.73;0.30;;;16.50;1.00;;;;;;5097228;28;20881;-80
2022/06/02 01:18:26;;;;;;;0.43;0.30;;;16.50;1.00;;;;;;5097345;28;20805;-80
2022/06/02 01:21:04;;;;;;;0.30;0.20;;;16.60;1.00;;;;;;5097342;28;20481;-80
2022/06/02 01:24:16;;;;;;;0.80;0.30;;;16.60;1.00;;;;;;5098194;28;20895;-80
2022/06/02 01:26:59;;;;;;;0.40;0.30;;;16.60;1.00;;;;;;5097389;28;20457;-80
2022/06/02 01:29:55;;;;;;;1.13;0.40;;;16.60;1.00;;;;;;5097818;28;20477;-80
2022/06/02 01:32:28;;;;;;;0.70;0.30;;;16.60;1.00;;;;;;5097795;28;20573;-76
2022/06/02 01:35:05;;;;;;;0.90;0.40;;;16.60;1.00;;;;;;5097196;28;20960;-75
2022/06/02 01:37:38;;;;;;;0.67;0.40;;;16.40;1.00;;;;;;5096560;28;20567;-76
2022/06/02 01:40:20;;;;;;;0.60;0.30;;;16.40;1.00;;;;;;5096305;28;20461;-76
2022/06/02 01:43:04;;;;;;;0.70;0.40;;;16.40;1.00;;;;;;5095478;28;20544;-75
2022/06/02 01:45:55;;;;;;;0.40;0.30;;;16.40;1.00;;;;;;5095269;28;20536;-76
2022/06/02 01:48:33;;;;;;;0.40;0.30;;;16.30;1.00;;;;;;5095344;28;20450;-76
2022/06/02 01:51:11;;;;;;;0.70;0.30;;;16.20;1.00;;;;;;5095116;28;20482;-76
2022/06/02 01:53:54;;;;;;;0.50;0.30;;;16.20;1.00;;;;;;5095218;28;20952;-75
2022/06/02 01:56:38;;;;;;;0.50;0.30;;;16.30;1.00;;;;;;5093155;28;20477;-76
2022/06/02 01:59:23;;;;;;;1.17;0.40;;;16.30;1.00;;;;;;5093343;28;20488;-76
2022/06/02 02:01:59;;;;;;;0.63;0.30;;;16.40;1.00;;;;;;5093555;28;20543;-76
2022/06/02 02:07:33;;;;;;;1.00;0.30;;;16.30;1.00;;;;;;5131899;27;20525;-75
2022/06/02 02:10:18;;;;;;;0.50;0.20;;;16.30;1.00;;;;;;5132221;27;20829;-75
2022/06/02 02:12:58;;;;;;;0.43;0.30;;;16.30;1.00;;;;;;5133010;27;20508;-75
2022/06/02 02:15:39;;;;;;;0.50;0.30;;;16.10;1.00;;;;;;5133181;27;20662;-75
2022/06/02 02:18:18;;;;;;;1.13;0.30;;;16.00;1.00;;;;;;5132499;27;20644;-75
2022/06/02 02:20:57;;;;;;;0.63;0.40;;;16.10;1.00;;;;;;5133487;27;20528;-75
2022/06/02 02:23:32;;;;;;;0.90;0.33;;;16.00;1.00;;;;;;5133623;27;20455;-75
2022/06/02 02:26:05;;;;;;;0.50;0.30;;;16.00;1.00;;;;;;5132933;27;20493;-75
2022/06/02 02:28:44;;;;;;;0.50;0.30;;;15.90;1.00;;;;;;5132831;27;20454;-75
2022/06/02 02:31:25;;;;;;;0.50;0.30;;;15.90;1.00;;;;;;5133959;27;20491;-75
2022/06/02 02:34:02;;;;;;;0.50;0.40;;;15.70;1.00;;;;;;5134285;27;20543;-75
2022/06/02 02:36:42;;;;;;;0.73;0.30;;;15.70;1.00;;;;;;5134397;27;20455;-75
2022/06/02 02:39:19;;;;;;;0.60;0.40;;;15.70;1.00;;;;;;5134957;27;20483;-75
2022/06/02 02:41:52;;;;;;;2.90;0.40;;;15.70;1.00;;;;;;5134636;27;20803;-75
2022/06/02 02:44:24;;;;;;;3.03;0.30;;;15.80;1.00;;;;;;5134274;27;20525;-75
2022/06/02 02:46:57;;;;;;;1.20;0.40;;;15.80;1.00;;;;;;5134064;27;20841;-76
2022/06/02 02:49:32;;;;;;;4.13;0.40;;;15.80;1.00;;;;;;5134268;27;20519;-75
2022/06/02 02:52:05;;;;;;;0.60;0.30;;;15.80;1.00;;;;;;5134415;27;20977;-75
2022/06/02 02:54:43;;;;;;;0.50;0.30;;;15.80;1.00;;;;;;5134203;27;20463;-75
2022/06/02 02:57:16;;;;;;;0.47;0.30;;;15.90;1.00;;;;;;5133837;27;20956;-75
2022/06/02 02:59:53;;;;;;;0.40;0.30;;;16.00;1.00;;;;;;5133754;27;20463;-76
2022/06/02 03:02:27;;;;;;;0.50;0.40;;;16.10;1.00;;;;;;5133966;27;20448;-75
2022/06/02 03:05:02;;;;;;;0.50;0.33;;;16.10;1.00;;;;;;5133866;27;20903;-76
2022/06/02 03:07:31;;;;;;;2.00;0.30;;;16.10;1.00;;;;;;5155045;27;20470;-75
2022/06/02 03:10:19;;;;;;;0.70;0.40;;;16.00;1.00;;;;;;5154759;27;20508;-75
2022/06/02 03:13:15;;;;;;;0.60;0.30;;;15.90;1.00;;;;;;5153925;27;20554;-75
2022/06/02 03:15:46;;;;;;;0.97;0.40;;;15.80;1.00;;;;;;5153878;27;20451;-75
2022/06/02 03:18:35;;;;;;;0.43;0.30;;;15.70;1.00;;;;;;5143257;27;20795;-75
2022/06/02 03:21:11;;;;;;;0.40;0.20;;;15.60;1.00;;;;;;5140010;27;20439;-75
2022/06/02 03:23:53;;;;;;;0.40;0.40;;;15.70;1.00;;;;;;5140151;27;20769;-75
2022/06/02 03:26:30;;;;;;;0.60;0.40;;;15.60;1.00;;;;;;5140280;27;20509;-75
2022/06/02 03:29:07;;;;;;;0.60;0.40;;;15.60;1.00;;;;;;5140170;27;20447;-75
2022/06/02 03:31:42;;;;;;;0.60;0.30;;;15.70;1.00;;;;;;5140078;27;20483;-75
2022/06/02 03:34:17;;;;;;;0.40;0.30;;;15.60;1.00;;;;;;5139165;27;20443;-75
2022/06/02 03:37:05;;;;;;;0.47;0.30;;;15.70;1.00;;;;;;5140094;27;20886;-75
2022/06/02 03:39:47;;;;;;;0.50;0.40;;;15.70;1.00;;;;;;5139548;27;20935;-75
2022/06/02 03:42:27;;;;;;;0.80;0.40;;;15.80;1.00;;;;;;5138776;27;20573;-75
2022/06/02 03:45:10;;;;;;;0.50;0.30;;;15.80;1.00;;;;;;5138636;27;20435;-76
2022/06/02 03:48:05;;;;;;;0.70;0.30;;;15.80;1.00;;;;;;5138015;27;20914;-75
2022/06/02 03:50:56;;;;;;;0.50;0.40;;;15.70;1.00;;;;;;5133577;27;20463;-76
2022/06/02 03:53:46;;;;;;;0.90;0.50;;;15.50;1.00;;;;;;5133427;27;20459;-75
2022/06/02 03:56:29;;;;;;;0.60;0.40;;;15.40;1.00;;;;;;5136581;27;20456;-75
2022/06/02 03:59:15;;;;;;;0.70;0.30;;;15.50;1.00;;;;;;5137005;27;20482;-76
2022/06/02 04:01:58;;;;;;;0.80;0.30;;;15.60;1.00;;;;;;5136883;27;20570;-75
2022/06/02 04:04:37;;;;;;;0.60;0.33;;;15.70;1.00;;;;;;5137243;27;20548;-75
2022/06/02 04:07:18;;;;;;;1.70;0.40;;;15.70;1.00;;;;;;5137053;27;20571;-76
2022/06/02 04:09:52;;;;;;;1.33;0.40;;;15.60;1.00;;;;;;5135587;27;20526;-74
2022/06/02 04:16:02;;;;;;;0.60;0.40;;;15.40;1.00;;;;;;5136614;27;20902;-74
2022/06/02 04:18:41;;;;;;;7.83;0.43;;;15.30;1.00;;;;;;5135473;27;20958;-74
2022/06/02 04:21:18;;;;;;;0.50;0.40;;;15.20;1.00;;;;;;5116772;27;20452;-75
2022/06/02 04:24:05;;;;;;;0.40;0.30;;;15.20;1.00;;;;;;5136143;27;20913;-74
2022/06/02 04:26:48;;;;;;;0.93;0.30;;;15.20;1.00;;;;;;5135875;27;21375;-74
2022/06/02 04:29:30;;;;;;;0.50;0.40;;;15.30;1.00;;;;;;5135399;27;20448;-74
2022/06/02 04:32:05;;;;;;;0.90;0.40;;;15.30;1.00;;;;;;5136061;27;20910;-74
2022/06/02 04:34:40;;;;;;;0.50;0.40;;;15.30;1.00;;;;;;5136410;27;20929;-76
2022/06/02 04:37:16;;;;;;;0.50;0.40;;;15.30;1.00;;;;;;5136598;27;20882;-78
2022/06/02 04:39:50;;;;;;;1.00;0.50;;;15.30;1.00;;;;;;5136301;27;20535;-75
2022/06/02 04:42:25;;;;;;;0.47;0.30;;;15.40;1.00;;;;;;5136193;27;20486;-75
2022/06/02 04:45:02;;;;;;;1.20;0.40;;;15.30;1.00;;;;;;5118592;27;20439;-74
2022/06/02 04:47:41;;;;;;;0.70;0.40;;;15.40;1.00;;;;;;5137955;27;20573;-74
2022/06/02 04:50:17;;;;;;;0.40;0.30;;;15.50;1.00;;;;;;5138761;27;20918;-75
2022/06/02 04:52:49;;;;;;;0.53;0.40;;;15.60;1.00;;;;;;5138784;27;20538;-74
2022/06/02 04:55:23;;;;;;;0.57;0.43;;;15.60;1.00;;;;;;5139065;27;20957;-74
2022/06/02 04:57:56;;;;;;;0.50;0.30;;;15.60;1.00;;;;;;5139687;27;20482;-75
2022/06/02 05:00:30;;;;;;;0.40;0.30;;;15.60;1.00;;;;;;5139531;27;20452;-71
2022/06/02 05:03:03;;;;;;;0.60;0.30;;;15.70;1.00;;;;;;5139317;27;20469;-71
2022/06/02 05:05:38;;;;;;;0.73;0.40;;;15.80;1.00;;;;;;5138298;27;20862;-71
2022/06/02 05:08:22;;;;;;;1.57;0.47;;;15.90;1.00;;;;;;5138309;27;20479;-73
2022/06/02 05:10:56;;;;;;;0.70;0.40;;;16.10;1.00;;;;;;5137687;27;20493;-72
2022/06/02 05:13:34;;;;;;;0.77;0.50;;;16.00;1.00;;;;;;5136317;27;20478;-73
2022/06/02 05:16:12;;;;;;;0.67;0.50;;;16.00;1.00;;;;;;5136193;27;20452;-72
2022/06/02 05:19:12;;;;;;;0.60;0.40;;;15.90;1.00;;;;;;5136224;27;20842;-72
2022/06/02 05:22:07;;;;;;;0.53;0.40;;;15.80;1.00;;;;;;5126667;27;20925;-72
2022/06/02 05:24:59;;;;;;;1.33;0.40;;;15.90;1.00;;;;;;5123605;27;20538;-72
2022/06/02 05:27:46;;;;;;;0.57;0.30;;;16.00;1.00;;;;;;5131057;27;21013;-72
2022/06/02 05:30:51;;;;;;;0.57;0.40;;;16.10;1.00;;;;;;5135295;27;20467;-73
2022/06/02 05:33:46;;;;;;;0.60;0.40;;;16.30;1.00;;;;;;5102458;27;20918;-72
2022/06/02 05:36:36;;;;;;;0.70;0.50;;;16.50;1.00;;;;;;5124198;27;20529;-73
2022/06/02 05:39:21;;;;;;;0.60;0.50;;;16.60;1.00;;;;;;5131923;27;20444;-73
2022/06/02 05:42:03;;;;;;;1.00;0.53;;;16.60;1.00;;;;;;5131389;27;21008;-72
2022/06/02 05:44:43;;;;;;;0.50;0.30;;;16.60;1.00;;;;;;5132038;27;20486;-72
2022/06/02 05:47:31;;;;;;;0.60;0.43;;;16.60;1.00;;;;;;5131982;27;20521;-72
2022/06/02 05:50:06;;;;;;;0.60;0.50;;;16.70;1.00;;;;;;5132612;27;20490;-71
2022/06/02 05:52:44;;;;;;;0.50;0.40;;;16.70;1.00;;;;;;5131036;27;20450;-72
2022/06/02 05:55:34;;;;;;;0.70;0.60;;;16.50;1.00;;;;;;5131065;27;20801;-72
2022/06/02 05:58:18;;;;;;;0.60;0.47;;;16.40;1.00;;;;;;5128205;27;20887;-72
2022/06/02 06:00:57;;;;;;;0.60;0.37;;;16.20;1.00;;;;;;5131553;27;20555;-72
2022/06/02 06:03:45;;;;;;;1.27;0.40;;;16.40;1.00;;;;;;5132060;27;20547;-72
2022/06/02 06:06:24;;;;;;;1.77;1.10;;;16.40;1.00;;;;;;5122088;28;20471;-72
2022/06/02 06:09:02;;;;;;;5.47;4.13;;;16.40;1.00;;;;;;5133884;28;20527;-71
2022/06/02 06:12:01;;;;;;;1.00;0.70;;;16.50;1.00;;;;;;5123093;28;20435;-71
2022/06/02 06:14:38;;;;;;;0.67;0.47;;;16.60;1.00;;;;;;5114067;28;21080;-71
2022/06/02 06:17:18;;;;;;;0.73;0.50;;;16.60;1.00;;;;;;5123401;28;20538;-72
2022/06/02 06:20:02;;;;;;;1.57;0.53;;;16.60;1.00;;;;;;5134177;28;20479;-72
2022/06/02 06:22:57;;;;;;;0.77;0.57;;;16.60;1.00;;;;;;5135257;27;20490;-71
2022/06/02 06:25:41;;;;;;;1.10;0.50;;;16.80;1.00;;;;;;5133144;27;20476;-72
2022/06/02 06:28:15;;;;;;;0.70;0.40;;;16.80;1.00;;;;;;5134236;28;20566;-71
2022/06/02 06:30:56;;;;;;;0.87;0.50;;;16.60;1.00;;;;;;5131114;27;20451;-71
2022/06/02 06:33:46;;;;;;;0.70;0.50;;;16.70;1.00;;;;;;5133178;27;20467;-71
2022/06/02 06:36:35;;;;;;;0.73;0.53;;;16.80;1.00;;;;;;5134552;27;20546;-72
2022/06/02 06:39:06;;;;;;;0.60;0.40;;;16.70;1.00;;;;;;5152951;27;20447;-72
2022/06/02 06:41:54;;;;;;;0.60;0.50;;;16.70;1.00;;;;;;5155866;27;20939;-72
2022/06/02 06:44:26;;;;;;;1.33;0.50;;;17.00;1.00;;;;;;5115768;28;20527;-71
2022/06/02 06:47:01;;;;;;;0.60;0.40;;;17.10;1.00;;;;;;5115770;28;21060;-70
2022/06/02 06:49:50;;;;;;;0.67;0.40;;;17.00;1.00;;;;;;5114444;28;20732;-71
2022/06/02 06:52:31;;;;;;;1.87;0.50;;;17.10;1.00;;;;;;5116819;27;20861;-74
2022/06/02 06:55:08;;;;;;;0.80;0.50;;;17.10;1.00;;;;;;5137139;27;20774;-74
2022/06/02 06:57:46;;;;;;;0.80;0.50;;;17.20;1.00;;;;;;5135894;27;20544;-74
2022/06/02 07:00:21;;;;;;;0.70;0.50;;;17.20;1.00;;;;;;5126798;27;20562;-72
2022/06/02 07:03:00;;;;;;;0.87;0.50;;;17.10;1.00;;;;;;5134631;27;20906;-72
2022/06/02 07:05:33;;;;;;;0.70;0.40;;;17.20;1.00;;;;;;5129608;27;20562;-72
2022/06/02 07:08:06;;;;;;;0.83;0.50;;;17.30;1.00;;;;;;5116348;28;20968;-73
2022/06/02 07:10:44;;;;;;;0.60;0.40;;;17.50;1.00;;;;;;5117630;27;20544;-73
2022/06/02 07:13:19;;;;;;;2.80;0.50;;;17.60;1.00;;;;;;5115408;28;20565;-73
2022/06/02 07:15:52;;;;;;;0.70;0.50;;;17.80;1.00;;;;;;5114738;28;20448;-70
2022/06/02 07:18:38;;;;;;;1.90;0.40;;;17.90;1.00;;;;;;5116462;28;20505;-70
2022/06/02 07:21:21;;;;;;;0.60;0.40;;;18.00;1.00;;;;;;5117704;28;20750;-70
2022/06/02 07:24:04;;;;;;;0.50;0.30;;;18.10;1.00;;;;;;5117862;28;20543;-70
2022/06/02 07:26:51;;;;;;;0.70;0.40;;;18.10;1.00;;;;;;5118439;28;20532;-73
2022/06/02 07:29:31;;;;;;;0.50;0.30;;;18.20;1.00;;;;;;5116273;28;20524;-72
2022/06/02 07:32:17;;;;;;;0.50;0.33;;;18.30;1.00;;;;;;5116424;28;20555;-72
2022/06/02 07:35:00;;;;;;;0.90;0.50;;;18.30;1.00;;;;;;5116673;28;20540;-73
2022/06/02 07:37:37;;;;;;;2.07;0.50;;;18.40;1.00;;;;;;5116421;28;20445;-72
2022/06/02 07:40:27;;;;;;;0.93;0.50;;;18.60;1.00;;;;;;5115675;28;20519;-72
2022/06/02 07:43:22;;;;;;;0.93;0.57;;;18.70;1.00;;;;;;5115151;28;20539;-72
2022/06/02 07:46:00;;;;;;;0.70;0.53;;;18.80;1.00;;;;;;5097955;28;20456;-72
2022/06/02 07:48:50;;;;;;;0.80;0.50;;;18.90;1.00;;;;;;5123728;27;20570;-72
2022/06/02 07:51:23;;;;;;;0.53;0.30;;;18.90;1.00;;;;;;5116571;28;20464;-73
2022/06/02 07:54:10;;;;;;;0.63;0.47;;;18.90;1.00;;;;;;5125627;27;20938;-72
2022/06/02 07:56:52;;;;;;;4.70;1.20;;;19.00;1.00;;;;;;5129848;27;20820;-73
2022/06/02 07:59:31;;;;;;;1.40;0.70;;;19.00;1.00;;;;;;5116242;28;20455;-72
2022/06/02 08:02:40;;;;;;;0.90;0.53;;;19.10;1.00;;;;;;5116179;28;20568;-71
2022/06/02 08:05:19;;;;;;;0.83;0.40;;;19.10;1.00;;;;;;5109345;28;20492;-71
2022/06/02 08:07:53;;;;;;;0.60;0.40;;;19.20;1.00;;;;;;5115667;28;20479;-71
2022/06/02 08:10:28;;;;;;;2.40;0.40;;;19.20;1.00;;;;;;5114863;28;20457;-72
2022/06/02 08:13:08;;;;;;;0.60;0.40;;;19.10;1.00;;;;;;5115467;28;20540;-71
2022/06/02 08:15:42;;;;;;;0.70;0.50;;;19.10;1.00;;;;;;5116358;28;20546;-72
2022/06/02 08:18:33;;;;;;;0.80;0.40;;;19.20;1.00;;;;;;5115914;28;20919;-73
2022/06/02 08:21:16;;;;;;;3.37;0.30;;;19.40;1.00;;;;;;5115114;28;20539;-72
2022/06/02 08:24:15;;;;;;;0.63;0.40;;;19.60;1.00;;;;;;5115182;28;20910;-71
2022/06/02 08:26:51;;;;;;;0.63;0.40;;;19.70;1.00;;;;;;5116738;28;20460;-73
2022/06/02 08:29:31;;;;;;;0.67;0.40;;;19.60;1.00;;;;;;5115454;28;20820;-72
2022/06/02 08:32:24;;;;;;;1.13;0.40;;;19.50;1.00;;;;;;5116893;28;20527;-71
2022/06/02 08:35:04;;;;;;;1.13;0.40;;;19.40;1.00;;;;;;5095707;28;20510;-72
2022/06/02 08:37:43;;;;;;;0.80;0.43;;;19.40;1.00;;;;;;5116652;28;21056;-72
2022/06/02 08:40:33;;;;;;;0.70;0.40;;;19.50;1.00;;;;;;5116384;28;20455;-72
2022/06/02 08:43:34;;;;;;;0.50;0.40;;;19.50;1.00;;;;;;5097646;28;20449;-71
2022/06/02 08:46:41;;;;;;;0.50;0.40;;;19.30;1.00;;;;;;5114264;28;20908;-71
2022/06/02 08:49:37;;;;;;;0.93;0.40;;;19.40;1.00;;;;;;5113926;28;20595;-72
2022/06/02 08:52:44;;;;;;;0.50;0.40;;;19.50;1.00;;;;;;5111290;28;21110;-70
2022/06/02 08:55:41;;;;;;;0.63;0.50;;;19.60;1.00;;;;;;5114212;28;20487;-72
2022/06/02 08:58:57;;;;;;;0.60;0.40;;;19.60;1.00;;;;;;5114928;28;20501;-71
2022/06/02 09:02:07;;;;;;;0.60;0.40;;;19.60;1.00;;;;;;5115302;28;20488;-71
2022/06/02 09:04:56;;;;;;;0.87;0.40;;;19.80;1.00;;;;;;5112633;28;20536;-72
2022/06/02 09:07:53;;;;;;;0.70;0.43;;;19.90;1.00;;;;;;5135361;27;20578;-72
2022/06/02 09:10:45;;;;;;;0.80;0.40;;;20.30;1.00;;;;;;5133896;27;20938;-72
2022/06/02 09:13:48;;;;;;;0.87;0.50;;;20.60;1.00;;;;;;5135525;27;20542;-72
2022/06/02 09:16:22;;;;;;;0.70;0.43;;;20.80;1.00;;;;;;5133483;27;20511;-71
2022/06/02 09:19:12;;;;;;;0.50;0.40;;;20.90;1.00;;;;;;5136134;27;20452;-71
2022/06/02 09:21:57;;;;;;;0.67;0.40;;;20.70;1.00;;;;;;5136734;27;20550;-72
2022/06/02 09:24:29;;;;;;;0.73;0.40;;;20.30;1.00;;;;;;5136661;27;20507;-73
2022/06/02 09:27:20;;;;;;;2.37;1.60;;;20.40;1.00;;;;;;5135875;27;20550;-71
2022/06/02 09:29:50;;;;;;;4.40;3.77;;;20.70;1.00;;;;;;5135903;27;20443;-72
2022/06/02 09:32:31;;;;;;;3.40;1.20;;;20.70;1.00;;;;;;5134483;27;20448;-71
2022/06/02 09:35:13;;;;;;;1.43;0.60;;;21.00;1.00;;;;;;5133707;27;20542;-71
2022/06/02 09:38:12;;;;;;;3.80;0.53;;;21.30;1.00;;;;;;5135330;27;20447;-72
2022/06/02 09:40:50;;;;;;;0.73;0.57;;;21.50;1.00;;;;;;5132659;27;20994;-71
2022/06/02 09:43:49;;;;;;;0.60;0.50;;;21.50;1.00;;;;;;5132451;27;20443;-72
2022/06/02 09:46:58;;;;;;;0.83;0.40;;;21.30;1.00;;;;;;5126450;27;20808;-71
2022/06/02 09:49:46;;;;;;;0.57;0.40;;;21.20;1.00;;;;;;5093594;27;20475;-71
2022/06/02 09:52:28;;;;;;;0.80;0.40;;;21.60;1.00;;;;;;5133745;27;20440;-71
2022/06/02 09:55:24;;;;;;;1.30;0.50;;;21.90;1.00;;;;;;5131479;27;20541;-71
2022/06/02 09:58:05;;;;;;;0.50;0.50;;;21.80;1.00;;;;;;5134847;27;20213;-72
2022/06/02 10:01:10;;;;;;;1.23;0.40;;;21.90;1.00;;;;;;5131860;27;20512;-72
2022/06/02 10:03:54;;;;;;;0.80;0.53;;;22.00;1.00;;;;;;5085640;27;20456;-72
2022/06/02 10:06:48;;;;;;;1.33;0.40;;;22.30;1.00;;;;;;5135361;28;20574;-72
2022/06/02 10:09:25;;;;;;;1.27;0.50;;;22.30;1.00;;;;;;5127299;28;20609;-71
2022/06/02 10:12:54;;;;;;;0.70;0.50;;;22.50;1.00;;;;;;5117213;27;20467;-73
2022/06/02 10:15:30;;;;;;;1.07;0.50;;;22.80;1.00;;;;;;5133367;27;20440;-71
2022/06/02 10:18:18;;;;;;;0.80;0.60;;;22.60;1.00;;;;;;5130105;27;20770;-71
2022/06/02 10:21:06;;;;;;;0.67;0.40;;;23.00;1.00;;;;;;5132896;27;20452;-71
2022/06/02 10:24:12;;;;;;;0.60;0.30;;;23.50;1.00;;;;;;5131502;27;20456;-72
2022/06/02 10:26:53;;;;;;;0.63;0.40;;;23.80;1.00;;;;;;5132971;27;20451;-72
2022/06/02 10:29:46;;;;;;;1.03;0.70;;;23.90;1.00;;;;;;5132766;27;21017;-73
2022/06/02 10:32:42;;;;;;;2.45;0.40;;;23.50;1.00;;;;;;5133925;27;20469;-72
2022/06/02 10:36:16;;;;;;;1.10;0.57;;;24.00;1.00;;;;;;5135202;27;20681;-71
2022/06/02 10:38:51;;;;;;;1.03;0.50;;;24.90;1.00;;;;;;5029694;28;20545;-72
2022/06/02 10:41:46;;;;;;;2.93;2.40;;;25.40;1.00;;;;;;5117879;27;20558;-73
2022/06/02 10:44:16;;;;;;;4.63;3.30;;;25.20;1.00;;;;;;5135330;27;20451;-72
2022/06/02 10:47:16;;;;;;;0.70;0.60;;;25.40;1.00;;;;;;5132068;27;20466;-72
2022/06/02 10:49:54;;;;;;;1.00;0.40;;;25.20;1.00;;;;;;5136227;27;20570;-72
2022/06/02 10:52:59;;;;;;;0.50;0.40;;;25.40;1.00;;;;;;5139321;27;20446;-71
2022/06/02 10:55:58;;;;;;;0.63;0.50;;;25.50;1.00;;;;;;5126831;27;20510;-71
2022/06/02 10:59:06;;;;;;;0.80;0.67;;;26.10;1.00;;;;;;5131452;27;20483;-72
2022/06/02 11:02:11;;;;;;;0.70;0.40;;;25.20;1.00;;;;;;5132172;27;20550;-72
2022/06/02 11:05:15;;;;;;;0.60;0.50;;;25.30;1.00;;;;;;5130707;27;20451;-72
2022/06/02 11:08:34;;;;;;;0.60;0.40;;;25.60;1.00;;;;;;5113152;28;20445;-71
2022/06/02 11:11:33;;;;;;;0.63;0.50;;;26.10;1.00;;;;;;5115010;28;20456;-71
2022/06/02 11:14:39;;;;;;;0.70;0.50;;;25.70;1.00;;;;;;5100813;28;20461;-71
2022/06/02 11:17:42;;;;;;;0.73;0.50;;;26.10;1.00;;;;;;5096408;28;20544;-71
2022/06/02 11:20:36;;;;;;;0.80;0.60;;;26.40;1.00;;;;;;5111404;28;20527;-71
2022/06/02 11:23:49;;;;;;;1.67;0.60;;;26.50;1.00;;;;;;5114098;28;20460;-71
2022/06/02 11:26:47;;;;;;;3.63;0.50;;;26.70;1.00;;;;;;5115493;28;20517;-71
2022/06/02 11:29:58;;;;;;;2.00;0.50;;;26.00;1.00;;;;;;5113483;28;21076;-71
2022/06/02 11:32:52;;;;;;;0.50;0.40;;;25.80;1.00;;;;;;5114015;28;21097;-71
2022/06/02 11:35:45;;;;;;;1.20;0.60;;;25.90;1.00;;;;;;5115544;28;20441;-71
2022/06/02 11:38:44;;;;;;;0.50;0.40;;;26.30;1.00;;;;;;5113515;28;20531;-71
2022/06/02 11:41:30;;;;;;;0.60;0.40;;;26.90;1.00;;;;;;5114316;28;20625;-72
2022/06/02 11:44:08;;;;;;;0.67;0.40;;;27.30;1.00;;;;;;5114166;28;20524;-71
2022/06/02 11:47:12;;;;;;;0.50;0.47;;;27.40;1.00;;;;;;5116083;28;20795;-71
2022/06/02 11:50:14;;;;;;;0.70;0.40;;;27.00;1.00;;;;;;5116407;28;20484;-72
2022/06/02 11:53:14;;;;;;;0.70;0.50;;;27.20;1.00;;;;;;5115965;28;20538;-72
2022/06/02 11:55:46;;;;;;;0.80;0.50;;;27.00;1.00;;;;;;5082277;28;20499;-72
2022/06/02 11:58:50;;;;;;;0.50;0.40;;;27.00;1.00;;;;;;5115450;28;20753;-72
2022/06/02 12:01:55;;;;;;;0.70;0.40;;;26.80;1.00;;;;;;5113498;28;20505;-71
2022/06/02 12:04:56;;;;;;;3.70;0.40;;;27.40;1.00;;;;;;5091757;28;20945;-71
2022/06/02 12:07:56;;;;;;;1.10;0.37;;;27.90;1.00;;;;;;5132004;27;20543;-72
2022/06/02 12:10:55;;;;;;;0.80;0.50;;;27.50;1.00;;;;;;5123348;27;20943;-69
2022/06/02 12:13:44;;;;;;;0.50;0.50;;;27.30;1.00;;;;;;5119830;27;20953;-72
2022/06/02 12:16:30;;;;;;;0.60;0.50;;;27.20;1.00;;;;;;5136207;27;20458;-72
2022/06/02 12:19:36;;;;;;;0.63;0.50;;;26.90;1.00;;;;;;5133260;27;20946;-71
2022/06/02 12:22:25;;;;;;;0.50;0.40;;;27.10;1.00;;;;;;5134973;27;20500;-71
2022/06/02 12:25:28;;;;;;;0.50;0.40;;;27.40;1.00;;;;;;5128817;27;20939;-72
2022/06/02 12:28:26;;;;;;;0.50;0.40;;;27.60;1.00;;;;;;5124166;27;20531;-71
2022/06/02 12:31:17;;;;;;;0.50;0.40;;;28.10;1.00;;;;;;5086776;27;20536;-71
2022/06/02 12:34:05;;;;;;;1.03;0.50;;;27.80;1.00;;;;;;5114519;28;20437;-71
2022/06/02 12:36:56;;;;;;;0.67;0.50;;;27.70;1.00;;;;;;5120798;27;20459;-71
2022/06/02 12:39:48;;;;;;;0.60;0.40;;;27.30;1.00;;;;;;5134492;27;20471;-71
2022/06/02 12:43:00;;;;;;;0.77;0.60;;;27.20;1.00;;;;;;5136386;27;20562;-71
2022/06/02 12:45:46;;;;;;;0.77;0.50;;;27.10;1.00;;;;;;5133471;27;20472;-72
2022/06/02 12:48:52;;;;;;;0.60;0.50;;;27.40;1.00;;;;;;5135066;27;20927;-70
2022/06/02 12:51:42;;;;;;;0.70;0.50;;;27.50;1.00;;;;;;5125252;27;20509;-71
2022/06/02 12:55:01;;;;;;;0.50;0.40;;;27.40;1.00;;;;;;5134954;27;20478;-72
2022/06/02 12:58:00;;;;;;;0.60;0.47;;;27.60;1.00;;;;;;5133984;27;20879;-71
2022/06/02 13:00:48;;;;;;;1.47;0.40;;;27.10;1.00;;;;;;5134214;27;20754;-71
2022/06/02 13:04:05;;;;;;;0.50;0.40;;;26.80;1.00;;;;;;5110689;27;20454;-70
2022/06/02 13:07:06;;;;;;;0.50;0.33;;;27.10;1.00;;;;;;5133839;27;20993;-71
2022/06/02 13:10:09;;;;;;;1.80;0.50;;;27.10;1.00;;;;;;5133923;27;20511;-72
2022/06/02 13:13:14;;;;;;;0.40;0.40;;;27.50;1.00;;;;;;5129878;27;21037;-72
2022/06/02 13:16:18;;;;;;;3.70;0.50;;;28.00;1.00;;;;;;5122874;27;20470;-72
2022/06/02 13:19:16;;;;;;;0.60;0.50;;;28.40;1.00;;;;;;5131266;27;20442;-73
2022/06/02 13:22:02;;;;;;;1.13;0.40;;;28.20;1.00;;;;;;5130181;27;20965;-73
2022/06/02 13:24:58;;;;;;;0.60;0.43;;;27.80;1.00;;;;;;5132289;27;20883;-72
2022/06/02 13:27:57;;;;;;;0.60;0.40;;;27.90;1.00;;;;;;5133169;27;20792;-73
2022/06/02 13:30:50;;;;;;;0.80;0.50;;;27.20;1.00;;;;;;5133458;27;20490;-73
2022/06/02 13:33:59;;;;;;;0.47;0.40;;;27.00;1.00;;;;;;5133382;27;20874;-72
2022/06/02 13:36:59;;;;;;;1.53;0.47;;;27.00;1.00;;;;;;5074233;27;20531;-73
2022/06/02 13:39:48;;;;;;;0.60;0.50;;;27.30;1.00;;;;;;5134271;27;20859;-72
2022/06/02 13:42:56;;;;;;;0.60;0.40;;;26.90;1.00;;;;;;5133025;27;20504;-73
2022/06/02 13:46:13;;;;;;;1.23;0.40;;;27.10;1.00;;;;;;5132503;27;20443;-73
2022/06/02 13:49:13;;;;;;;1.53;0.60;;;26.60;1.00;;;;;;5133486;27;21200;-73
2022/06/02 13:52:15;;;;;;;0.60;0.50;;;26.50;1.00;;;;;;5088042;27;20554;-72
2022/06/02 13:58:26;;;;;;;0.50;0.40;;;25.90;1.00;;;;;;5113268;28;20469;-73
2022/06/02 14:01:11;;;;;;;0.70;0.40;;;25.80;1.00;;;;;;5121851;27;20479;-73
2022/06/02 14:04:08;;;;;;;0.57;0.50;;;25.80;1.00;;;;;;5135428;27;20530;-74
2022/06/02 14:06:44;;;;;;;1.93;0.60;;;25.70;1.00;;;;;;5133725;27;20515;-73
2022/06/02 14:09:51;;;;;;;0.60;0.50;;;26.00;1.00;;;;;;5115933;27;21131;-74
2022/06/02 14:12:35;;;;;;;1.00;0.50;;;26.10;1.00;;;;;;5133852;27;20491;-74
2022/06/02 14:15:26;;;;;;;0.60;0.50;;;26.00;1.00;;;;;;5132771;27;20543;-73
2022/06/02 14:18:15;;;;;;;0.60;0.50;;;25.60;1.00;;;;;;5126740;27;20494;-72
2022/06/02 14:20:54;;;;;;;0.63;0.47;;;25.80;1.00;;;;;;5131155;27;20483;-73
2022/06/02 14:23:32;;;;;;;0.80;0.50;;;26.10;1.00;;;;;;5133490;27;20448;-73
2022/06/02 14:26:07;;;;;;;0.70;0.60;;;26.20;1.00;;;;;;5132399;27;20463;-73
2022/06/02 14:28:54;;;;;;;1.00;0.80;;;26.60;1.00;;;;;;5131918;27;20455;-73
2022/06/02 14:31:31;;;;;;;0.70;0.50;;;26.60;1.00;;;;;;5134788;27;20477;-73
2022/06/02 14:34:06;;;;;;;1.30;0.57;;;26.30;1.00;;;;;;5135058;27;20460;-73
2022/06/02 14:36:42;;;;;;;0.80;0.50;;;26.20;1.00;;;;;;5139834;27;20462;-73
2022/06/02 14:39:22;;;;;;;0.60;0.50;;;25.90;1.00;;;;;;5135802;27;20503;-73
2022/06/02 14:43:03;;;;;;;0.60;0.50;;;25.60;1.00;;;;;;5133937;27;20495;-73
2022/06/02 14:45:18;;;;;;;1.23;0.50;;;25.50;1.00;;;;;;5135267;27;20447;-72
2022/06/02 14:47:53;;;;;;;0.67;0.50;;;25.60;1.00;;;;;;5134402;27;20452;-72
2022/06/02 14:50:29;;;;;;;0.90;0.60;;;25.40;1.00;;;;;;5132653;27;20550;-73
2022/06/02 14:53:35;;;;;;;0.60;0.50;;;25.30;1.00;;;;;;5140938;27;20458;-74